Terminal Aerodrome Forecast
Issued by NWS Omaha/Valley, NE

Home | Current Version | Previous Version | Graphics & Text | Print | Product List | Glossary On
Versions: 1 2 3 4 5 6 7 8 9 10 11 12 13 14 15 16 17 18 19 20 21 22 23 24 25 26 27 28 29 30 31 32 33 34 35 36 37 38 39 40 41 42 43 44 45 46 47 48
000
FTUS43 KOAX 211730
TAFOFK
TAF
KOFK 211730Z 2118/2218 17014G19KT 5SM BR SCT006 OVC090
      TEMPO 2118/2120 3SM BR BKN006 OVC090
     FM212100 19015G22KT 5SM BR OVC015
      TEMPO 2121/2123 2SM BR OVC002
     FM220000 18015G23KT 5SM BR OVC005
      TEMPO 2200/2203 3SM -RA BR OVC004
     FM220600 22014G20KT 4SM -RA BR OVC005
     FM221300 22007KT 3SM -RA BR OVC007=

USA.gov is the U.S. government's official web portal to all federal, state and local government web resources and services.